createdAt,value
2023-03-08T00:00:59.057Z,39.01
2023-03-08T00:06:05.135Z,39.27
2023-03-08T00:11:08.803Z,38.92
2023-03-08T00:16:13.686Z,38.82
2023-03-08T00:21:18.002Z,38.90
2023-03-08T00:26:20.056Z,39.01
2023-03-08T00:31:22.133Z,39.15
2023-03-08T00:36:24.130Z,38.83
2023-03-08T00:41:26.356Z,39.18
2023-03-08T00:46:28.380Z,39.18
2023-03-08T00:51:30.622Z,39.24
2023-03-08T00:56:32.510Z,38.85
2023-03-08T01:01:34.989Z,39.07
2023-03-08T01:06:37.065Z,38.92
2023-03-08T01:11:39.048Z,39.12
2023-03-08T01:16:42.167Z,39.26
2023-03-08T01:21:44.123Z,38.92
2023-03-08T01:26:46.131Z,39.15
2023-03-08T01:31:47.997Z,39.04
2023-03-08T01:36:49.758Z,39.22
2023-03-08T01:41:51.730Z,39.24
2023-03-08T01:46:53.754Z,39.40
2023-03-08T01:51:55.899Z,39.33
2023-03-08T01:57:03.579Z,38.99
2023-03-08T02:02:07.072Z,39.06
2023-03-08T02:07:08.889Z,39.24
2023-03-08T02:12:13.646Z,39.19
2023-03-08T02:17:15.610Z,39.04
2023-03-08T02:22:18.061Z,39.19
2023-03-08T02:27:26.399Z,39.15
2023-03-08T02:32:28.245Z,39.37
2023-03-08T02:37:32.002Z,39.26
2023-03-08T02:42:34.135Z,39.13
2023-03-08T02:47:36.130Z,39.38
2023-03-08T02:52:38.148Z,39.46
2023-03-08T02:57:39.956Z,39.10
2023-03-08T03:02:41.863Z,39.39
2023-03-08T03:07:43.759Z,39.47
2023-03-08T03:12:45.919Z,39.37
2023-03-08T03:17:47.897Z,39.48
2023-03-08T03:22:49.866Z,39.36
2023-03-08T03:27:51.822Z,39.54
2023-03-08T03:32:53.751Z,39.63
2023-03-08T03:37:55.649Z,39.48
2023-03-08T03:42:57.646Z,39.29
2023-03-08T03:47:59.636Z,39.74
2023-03-08T03:53:01.626Z,39.43
2023-03-08T03:58:03.536Z,39.26
2023-03-08T04:03:05.611Z,39.29
2023-03-08T04:08:09.136Z,39.42
2023-03-08T04:13:13.948Z,39.55
2023-03-08T04:18:16.122Z,39.18
2023-03-08T04:23:18.040Z,39.33
2023-03-08T04:28:20.432Z,39.64
2023-03-08T04:33:22.523Z,39.29
2023-03-08T04:38:24.316Z,39.67
2023-03-08T04:43:26.386Z,39.63
2023-03-08T04:48:29.058Z,39.18
2023-03-08T04:53:32.207Z,39.49
2023-03-08T04:58:34.322Z,39.44
2023-03-08T05:03:36.102Z,39.52
2023-03-08T05:08:38.373Z,39.49
2023-03-08T05:13:40.641Z,39.57
2023-03-08T05:18:42.795Z,39.40
2023-03-08T05:23:45.160Z,39.71
2023-03-08T05:28:46.906Z,39.51
2023-03-08T05:33:51.303Z,39.55
2023-03-08T05:38:54.980Z,39.55
2023-03-08T05:43:58.776Z,39.19
2023-03-08T05:49:00.758Z,39.61
2023-03-08T05:54:02.803Z,39.21
2023-03-08T05:59:04.740Z,39.52
2023-03-08T06:04:06.761Z,39.51
2023-03-08T06:09:09.033Z,39.52
2023-03-08T06:14:13.079Z,39.57
2023-03-08T06:19:15.990Z,39.39
2023-03-08T06:24:17.884Z,39.23
2023-03-08T06:29:19.777Z,39.12
2023-03-08T06:34:21.896Z,39.40
2023-03-08T06:39:24.206Z,39.40
2023-03-08T06:44:26.165Z,39.54
2023-03-08T06:49:28.165Z,39.61
2023-03-08T06:54:30.216Z,39.60
2023-03-08T06:59:32.100Z,39.43
2023-03-08T07:04:34.103Z,39.58
2023-03-08T07:09:36.297Z,39.65
2023-03-08T07:14:38.287Z,39.61
2023-03-08T07:19:40.150Z,39.43
2023-03-08T07:24:42.154Z,39.66
2023-03-08T07:29:44.282Z,39.53
2023-03-08T07:34:46.188Z,39.19
2023-03-08T07:39:48.345Z,38.94
2023-03-08T07:44:50.177Z,38.68
2023-03-08T07:49:51.980Z,38.65
2023-03-08T07:54:53.974Z,38.88
2023-03-08T07:59:55.842Z,38.66
2023-03-08T08:04:57.808Z,38.78
2023-03-08T08:09:59.759Z,38.96
2023-03-08T08:15:01.796Z,39.06
2023-03-08T08:20:05.504Z,38.77
2023-03-08T08:25:08.570Z,39.02
2023-03-08T08:30:13.166Z,38.77
2023-03-08T08:35:15.585Z,39.08
2023-03-08T08:40:17.701Z,39.00
2023-03-08T08:45:19.580Z,38.89
2023-03-08T08:50:21.451Z,38.76
2023-03-08T08:55:23.218Z,38.94
2023-03-08T09:00:25.176Z,38.55
2023-03-08T09:05:30.100Z,38.65
2023-03-08T09:10:36.385Z,38.49
2023-03-08T09:15:38.614Z,38.13
2023-03-08T09:20:40.741Z,38.11
2023-03-08T09:25:42.434Z,38.14
2023-03-08T09:30:44.446Z,38.20
2023-03-08T09:35:58.830Z,38.00
2023-03-08T09:41:26.166Z,38.02
2023-03-08T09:46:34.284Z,38.19
2023-03-08T09:51:41.207Z,38.11
2023-03-08T09:56:47.488Z,37.83
2023-03-08T10:01:57.294Z,37.74
2023-03-08T10:07:18.513Z,37.91
2023-03-08T10:12:30.203Z,37.70
2023-03-08T10:17:42.838Z,39.53
2023-03-08T10:22:47.092Z,37.96
2023-03-08T10:27:53.793Z,38.02
2023-03-08T10:33:00.181Z,37.92
2023-03-08T10:38:02.531Z,37.91
2023-03-08T10:43:07.200Z,37.75
2023-03-08T10:48:22.398Z,37.76
2023-03-08T10:53:24.684Z,37.74
2023-03-08T10:58:40.579Z,37.77
2023-03-08T11:03:42.928Z,37.38
2023-03-08T11:08:56.626Z,37.92
2023-03-08T11:14:00.117Z,38.55
2023-03-08T11:19:11.663Z,38.56
2023-03-08T11:24:33.806Z,38.50
2023-03-08T11:29:50.656Z,37.91
2023-03-08T11:35:25.711Z,38.22
2023-03-08T11:40:42.790Z,38.18
2023-03-08T11:45:47.530Z,38.59
2023-03-08T11:51:10.312Z,38.50
2023-03-08T11:56:38.262Z,38.61
2023-03-08T12:02:05.984Z,38.33
2023-03-08T12:07:37.073Z,38.50
2023-03-08T12:13:14.165Z,38.12
2023-03-08T12:18:18.553Z,38.87
2023-03-08T12:23:39.940Z,39.48
2023-03-08T12:28:52.069Z,39.33
2023-03-08T12:33:54.387Z,39.41
2023-03-08T12:39:08.463Z,38.89
2023-03-08T12:44:28.053Z,38.66
2023-03-08T12:49:36.451Z,38.57
2023-03-08T12:54:38.972Z,38.87
2023-03-08T12:59:41.763Z,38.83
2023-03-08T13:04:44.270Z,38.79
2023-03-08T13:10:24.050Z,38.95
2023-03-08T13:15:26.523Z,38.60
2023-03-08T13:20:34.613Z,38.61
2023-03-08T13:25:36.701Z,38.40
2023-03-08T13:30:42.721Z,38.66
2023-03-08T13:35:55.201Z,38.71
2023-03-08T13:40:59.001Z,38.70
2023-03-08T13:46:04.210Z,38.32
2023-03-08T13:51:06.654Z,38.54
2023-03-08T13:56:08.736Z,38.60
2023-03-08T14:01:15.585Z,38.53
2023-03-08T14:06:34.147Z,38.60
2023-03-08T14:11:40.033Z,38.66
2023-03-08T14:16:42.290Z,38.71
2023-03-08T14:21:50.506Z,38.62
2023-03-08T14:27:21.817Z,38.64
2023-03-08T14:32:32.486Z,38.52
2023-03-08T14:37:38.275Z,38.81
2023-03-08T14:42:49.737Z,38.61
2023-03-08T14:47:55.859Z,39.00
2023-03-08T14:53:00.132Z,38.97
2023-03-08T14:58:14.059Z,38.94
2023-03-08T15:03:16.417Z,39.00
2023-03-08T15:08:19.685Z,39.04
2023-03-08T15:13:23.744Z,39.26
2023-03-08T15:18:26.017Z,39.27
2023-03-08T15:23:31.418Z,39.36
2023-03-08T15:28:34.686Z,39.56
2023-03-08T15:33:37.722Z,39.33
2023-03-08T15:38:39.529Z,39.03
2023-03-08T15:43:42.656Z,39.26
2023-03-08T15:48:45.812Z,38.97
2023-03-08T15:53:49.416Z,39.03
2023-03-08T15:58:52.102Z,38.78
2023-03-08T16:03:57.750Z,38.39
2023-03-08T16:08:59.665Z,38.43
2023-03-08T16:14:01.370Z,38.31
2023-03-08T16:19:03.453Z,38.24
2023-03-08T16:24:05.510Z,38.18
2023-03-08T16:29:07.923Z,38.18
2023-03-08T16:34:11.800Z,38.11
2023-03-08T16:39:13.722Z,38.11
2023-03-08T16:44:24.902Z,38.12
2023-03-08T16:49:28.731Z,38.07
2023-03-08T16:54:31.280Z,38.27
2023-03-08T16:59:33.217Z,38.64
2023-03-08T17:04:35.298Z,38.19
2023-03-08T17:09:38.572Z,38.09
2023-03-08T17:14:41.449Z,38.13
2023-03-08T17:19:43.337Z,38.13
2023-03-08T17:24:45.177Z,37.77
2023-03-08T17:29:47.118Z,37.84
2023-03-08T17:34:52.087Z,38.07
2023-03-08T17:39:53.852Z,37.79
2023-03-08T17:44:55.900Z,37.49
2023-03-08T17:49:57.622Z,37.52
2023-03-08T17:55:00.118Z,37.72
2023-03-08T18:00:02.389Z,37.75
2023-03-08T18:05:05.691Z,37.34
2023-03-08T18:10:07.745Z,37.23
2023-03-08T18:15:10.353Z,37.26
2023-03-08T18:20:12.727Z,37.55
2023-03-08T18:25:14.654Z,37.41
2023-03-08T18:30:16.994Z,37.51
2023-03-08T18:35:19.203Z,37.61
2023-03-08T18:40:21.503Z,37.38
2023-03-08T18:45:23.690Z,37.61
2023-03-08T18:50:26.088Z,37.35
2023-03-08T18:55:27.958Z,37.27
2023-03-08T19:00:29.768Z,37.29
2023-03-08T19:05:31.558Z,37.09
2023-03-08T19:10:33.783Z,37.02
2023-03-08T19:15:40.465Z,37.19
2023-03-08T19:20:43.096Z,37.04
2023-03-08T19:26:03.419Z,36.76
2023-03-08T19:31:05.780Z,36.80
2023-03-08T19:36:09.623Z,36.74
2023-03-08T19:41:12.097Z,36.93
2023-03-08T19:46:18.039Z,36.75
2023-03-08T19:51:20.865Z,36.88
2023-03-08T19:56:24.662Z,36.77
2023-03-08T20:01:27.387Z,36.73
2023-03-08T20:06:34.789Z,36.99
2023-03-08T20:11:36.990Z,36.97
2023-03-08T20:16:39.096Z,36.73
2023-03-08T20:21:41.069Z,37.09
2023-03-08T20:26:43.046Z,37.37
2023-03-08T20:31:46.069Z,37.10
2023-03-08T20:36:48.736Z,37.60
2023-03-08T20:41:50.874Z,37.52
2023-03-08T20:46:52.818Z,37.82
2023-03-08T20:51:54.762Z,37.52
2023-03-08T20:56:57.194Z,42.13
2023-03-08T21:01:59.331Z,43.02
2023-03-08T21:07:01.471Z,43.44
2023-03-08T21:12:04.866Z,42.25
2023-03-08T21:17:06.925Z,42.25
2023-03-08T21:22:11.022Z,41.36
2023-03-08T21:27:13.275Z,41.07
2023-03-08T21:32:15.430Z,45.34
2023-03-08T21:37:17.610Z,43.14
2023-03-08T21:42:19.473Z,44.58
2023-03-08T21:47:21.139Z,41.38
2023-03-08T21:52:23.069Z,41.40
2023-03-08T21:57:25.127Z,40.77
2023-03-08T22:02:27.030Z,40.71
2023-03-08T22:07:28.877Z,40.32
2023-03-08T22:12:30.833Z,40.41
2023-03-08T22:17:32.846Z,40.22
2023-03-08T22:22:34.647Z,40.18
2023-03-08T22:27:36.737Z,40.02
2023-03-08T22:32:40.474Z,39.68
2023-03-08T22:37:43.974Z,39.75
2023-03-08T22:42:46.496Z,39.85
2023-03-08T22:47:48.316Z,39.45
2023-03-08T22:52:50.208Z,39.67
2023-03-08T22:57:52.267Z,39.60
2023-03-08T23:02:57.880Z,39.50
2023-03-08T23:07:59.931Z,39.53
2023-03-08T23:13:02.791Z,39.37
2023-03-08T23:18:04.980Z,39.08
2023-03-08T23:23:07.339Z,39.31
2023-03-08T23:28:09.393Z,39.01
2023-03-08T23:33:11.374Z,38.88
2023-03-08T23:38:13.194Z,38.98
2023-03-08T23:43:15.119Z,38.89
2023-03-08T23:48:17.070Z,38.92
2023-03-08T23:53:19.073Z,39.14
2023-03-08T23:58:21.124Z,38.82
